createdAt,value
2019-02-16T00:01:56.603Z,9.63
2019-02-16T00:04:26.297Z,10.18
2019-02-16T00:06:56.065Z,10.93
2019-02-16T00:09:25.813Z,10.08
2019-02-16T00:11:55.582Z,13.18
2019-02-16T00:14:25.358Z,11.90
2019-02-16T00:16:55.088Z,10.90
2019-02-16T00:19:24.852Z,9.50
2019-02-16T00:21:54.584Z,9.83
2019-02-16T00:24:24.269Z,9.20
2019-02-16T00:26:53.983Z,9.80
2019-02-16T00:29:23.721Z,9.28
2019-02-16T00:31:53.845Z,9.53
2019-02-16T00:34:23.571Z,9.63
2019-02-16T00:36:53.271Z,9.70
2019-02-16T00:39:22.997Z,9.70
2019-02-16T00:41:52.689Z,9.75
2019-02-16T00:44:22.432Z,9.18
2019-02-16T00:46:52.108Z,9.38
2019-02-16T00:49:21.860Z,10.40
2019-02-16T00:51:51.534Z,9.85
2019-02-16T00:54:21.216Z,10.95
2019-02-16T00:56:50.907Z,10.30
2019-02-16T00:59:20.639Z,11.68
2019-02-16T01:01:50.427Z,12.68
2019-02-16T01:04:20.087Z,12.20
2019-02-16T01:06:49.784Z,12.55
2019-02-16T01:09:19.447Z,12.90
2019-02-16T01:11:49.137Z,12.37
2019-02-16T01:14:18.878Z,12.10
2019-02-16T01:16:48.636Z,12.20
2019-02-16T01:19:18.391Z,12.05
2019-02-16T01:21:48.119Z,13.15
2019-02-16T01:24:17.880Z,11.73
2019-02-16T01:26:47.555Z,12.37
2019-02-16T01:29:17.241Z,10.70
2019-02-16T01:31:46.974Z,9.90
2019-02-16T01:34:16.652Z,10.82
2019-02-16T01:36:46.333Z,11.12
2019-02-16T01:39:16.087Z,10.72
2019-02-16T01:41:47.514Z,9.30
2019-02-16T01:44:17.124Z,8.60
2019-02-16T01:46:46.799Z,8.33
2019-02-16T01:49:16.548Z,8.20
2019-02-16T01:51:46.232Z,7.78
2019-02-16T01:54:15.924Z,8.43
2019-02-16T01:56:45.673Z,9.08
2019-02-16T01:59:15.407Z,8.63
2019-02-16T02:01:45.088Z,7.75
2019-02-16T02:04:14.844Z,7.58
2019-02-16T02:06:44.586Z,7.72
2019-02-16T02:09:14.396Z,7.78
2019-02-16T02:11:44.118Z,8.28
2019-02-16T02:14:13.837Z,8.20
2019-02-16T02:16:43.518Z,8.45
2019-02-16T02:19:13.243Z,7.60
2019-02-16T02:21:42.993Z,8.23
2019-02-16T02:24:12.704Z,8.58
2019-02-16T02:26:42.386Z,9.25
2019-02-16T02:29:13.951Z,9.20
2019-02-16T02:31:43.626Z,8.98
2019-02-16T02:34:13.373Z,9.85
2019-02-16T02:36:43.038Z,9.78
2019-02-16T02:39:13.416Z,10.03
2019-02-16T02:41:44.563Z,10.45
2019-02-16T02:44:14.273Z,11.97
2019-02-16T02:46:44.096Z,11.65
2019-02-16T02:49:13.901Z,11.03
2019-02-16T02:51:51.664Z,11.15
2019-02-16T02:54:15.051Z,11.00
2019-02-16T02:56:44.780Z,10.72
2019-02-16T02:59:14.546Z,11.05
2019-02-16T03:01:44.300Z,11.43
2019-02-16T03:04:13.969Z,11.43
2019-02-16T03:06:43.657Z,11.93
2019-02-16T03:09:13.392Z,11.40
2019-02-16T03:11:43.161Z,11.53
2019-02-16T03:14:12.892Z,11.45
2019-02-16T03:16:42.652Z,11.40
2019-02-16T03:19:12.403Z,10.10
2019-02-16T03:21:42.156Z,11.97
2019-02-16T03:24:11.841Z,11.45
2019-02-16T03:26:50.628Z,11.12
2019-02-16T03:29:32.535Z,11.30
2019-02-16T03:32:14.122Z,11.18
2019-02-16T03:35:03.603Z,12.80
2019-02-16T03:37:48.579Z,11.93
2019-02-16T03:40:18.334Z,11.60
2019-02-16T03:42:48.135Z,12.50
2019-02-16T03:45:17.864Z,11.43
2019-02-16T03:47:47.597Z,12.25
2019-02-16T03:50:17.356Z,11.60
2019-02-16T03:52:47.044Z,12.10
2019-02-16T03:55:16.781Z,11.35
2019-02-16T03:57:46.468Z,12.30
2019-02-16T04:00:16.221Z,12.30
2019-02-16T04:02:45.992Z,12.75
2019-02-16T04:05:15.724Z,11.08
2019-02-16T04:07:45.411Z,11.38
2019-02-16T04:10:15.080Z,11.53
2019-02-16T04:12:44.830Z,12.50
2019-02-16T04:15:14.508Z,12.80
2019-02-16T04:17:44.176Z,11.57
2019-02-16T04:20:13.860Z,11.22
2019-02-16T04:22:43.541Z,10.38
2019-02-16T04:25:13.270Z,10.23
2019-02-16T04:27:42.966Z,11.33
2019-02-16T04:30:12.688Z,10.65
2019-02-16T04:32:42.375Z,10.85
2019-02-16T04:35:12.064Z,11.22
2019-02-16T04:37:41.737Z,10.90
2019-02-16T04:40:11.415Z,11.05
2019-02-16T04:42:41.104Z,11.33
2019-02-16T04:45:11.930Z,11.05
2019-02-16T04:47:41.739Z,11.93
2019-02-16T04:50:11.500Z,10.90
2019-02-16T04:52:41.241Z,11.15
2019-02-16T04:55:10.917Z,11.25
2019-02-16T04:57:40.648Z,10.88
2019-02-16T05:00:10.325Z,10.90
2019-02-16T05:02:40.008Z,12.05
2019-02-16T05:05:10.654Z,12.25
2019-02-16T05:07:40.405Z,11.53
2019-02-16T05:10:10.059Z,11.50
2019-02-16T05:12:39.748Z,12.07
2019-02-16T05:15:09.904Z,11.45
2019-02-16T05:17:39.655Z,11.97
2019-02-16T05:20:09.315Z,12.60
2019-02-16T05:22:44.575Z,11.18
2019-02-16T05:25:10.373Z,12.07
2019-02-16T05:27:40.119Z,11.93
2019-02-16T05:30:09.867Z,11.70
2019-02-16T05:32:39.542Z,11.65
2019-02-16T05:35:09.301Z,11.70
2019-02-16T05:37:39.032Z,12.10
2019-02-16T05:40:09.097Z,11.75
2019-02-16T05:42:38.834Z,11.80
2019-02-16T05:45:09.338Z,11.65
2019-02-16T05:47:39.007Z,10.58
2019-02-16T05:50:08.693Z,10.70
2019-02-16T05:52:38.460Z,10.10
2019-02-16T05:55:08.211Z,10.00
2019-02-16T05:57:37.941Z,9.15
2019-02-16T06:00:10.853Z,8.53
2019-02-16T06:02:40.619Z,8.83
2019-02-16T06:05:10.286Z,8.05
2019-02-16T06:07:39.990Z,7.83
2019-02-16T06:10:09.712Z,7.17
2019-02-16T06:12:39.390Z,7.22
2019-02-16T06:15:09.723Z,7.15
2019-02-16T06:17:39.396Z,7.85
2019-02-16T06:20:09.418Z,7.70
2019-02-16T06:22:39.160Z,8.30
2019-02-16T06:25:08.825Z,7.60
2019-02-16T06:27:38.623Z,8.20
2019-02-16T06:30:09.239Z,7.65
2019-02-16T06:32:40.795Z,8.20
2019-02-16T06:35:15.383Z,7.60
2019-02-16T06:37:45.123Z,8.30
2019-02-16T06:40:15.982Z,7.20
2019-02-16T06:42:45.700Z,7.90
2019-02-16T06:45:15.823Z,7.70
2019-02-16T06:47:45.608Z,7.80
2019-02-16T06:50:15.286Z,7.83
2019-02-16T06:52:45.037Z,7.62
2019-02-16T06:55:15.013Z,7.58
2019-02-16T06:57:46.615Z,7.15
2019-02-16T07:00:17.943Z,7.55
2019-02-16T07:02:47.668Z,7.42
2019-02-16T07:05:17.789Z,8.10
2019-02-16T07:07:48.462Z,8.53
2019-02-16T07:10:18.177Z,8.33
2019-02-16T07:12:49.005Z,8.55
2019-02-16T07:15:18.857Z,8.20
2019-02-16T07:17:50.415Z,8.53
2019-02-16T07:20:21.821Z,8.68
2019-02-16T07:22:52.019Z,8.40
2019-02-16T07:25:21.897Z,8.33
2019-02-16T07:27:51.732Z,7.95
2019-02-16T07:30:21.390Z,7.97
2019-02-16T07:32:51.259Z,8.68
2019-02-16T07:35:21.492Z,8.05
2019-02-16T07:37:51.292Z,8.08
2019-02-16T07:40:20.969Z,9.35
2019-02-16T07:42:52.967Z,8.63
2019-02-16T07:45:40.622Z,8.28
2019-02-16T07:48:12.081Z,8.88
2019-02-16T07:50:55.851Z,9.30
2019-02-16T07:53:31.329Z,10.05
2019-02-16T07:56:00.203Z,10.85
2019-02-16T07:58:31.519Z,10.82
2019-02-16T08:01:02.847Z,11.97
2019-02-16T08:03:34.225Z,12.33
2019-02-16T08:06:08.570Z,13.33
2019-02-16T08:08:39.868Z,12.03
2019-02-16T08:11:14.208Z,12.23
2019-02-16T08:13:45.521Z,11.67
2019-02-16T08:16:16.835Z,11.93
2019-02-16T08:18:48.160Z,11.70
2019-02-16T08:21:34.622Z,10.70
2019-02-16T08:24:08.726Z,11.17
2019-02-16T08:26:40.136Z,10.40
2019-02-16T08:29:17.273Z,10.03
2019-02-16T08:31:51.658Z,11.13
2019-02-16T08:34:32.109Z,11.23
2019-02-16T08:37:06.399Z,11.73
2019-02-16T08:39:37.721Z,12.40
2019-02-16T08:42:24.295Z,13.40
2019-02-16T08:45:11.859Z,12.83
2019-02-16T08:47:45.775Z,13.47
2019-02-16T08:50:17.120Z,13.47
2019-02-16T08:52:48.509Z,14.13
2019-02-16T08:55:19.838Z,13.47
2019-02-16T08:57:53.908Z,14.70
2019-02-16T09:00:25.234Z,14.70
2019-02-16T09:03:05.618Z,14.07
2019-02-16T09:05:37.021Z,13.77
2019-02-16T09:08:08.411Z,14.50
2019-02-16T09:10:55.783Z,15.17
2019-02-16T09:13:39.371Z,14.07
2019-02-16T09:16:10.796Z,14.57
2019-02-16T09:18:44.783Z,15.00
2019-02-16T09:21:21.874Z,15.70
2019-02-16T09:23:59.155Z,15.20
2019-02-16T09:26:29.280Z,15.33
2019-02-16T09:29:00.652Z,15.90
2019-02-16T09:31:38.160Z,16.10
2019-02-16T09:34:17.673Z,15.20
2019-02-16T09:36:57.980Z,15.10
2019-02-16T09:39:29.330Z,14.63
2019-02-16T09:42:16.077Z,14.67
2019-02-16T09:44:53.322Z,14.30
2019-02-16T09:47:30.571Z,14.50
2019-02-16T09:50:01.904Z,14.13
2019-02-16T09:52:39.327Z,14.23
2019-02-16T09:55:23.247Z,13.13
2019-02-16T09:57:57.364Z,14.20
2019-02-16T10:00:35.101Z,14.67
2019-02-16T10:03:06.634Z,15.43
2019-02-16T10:05:53.077Z,14.97
2019-02-16T10:08:33.495Z,14.83
2019-02-16T10:11:16.993Z,15.13
2019-02-16T10:13:57.140Z,14.30
2019-02-16T10:16:34.561Z,14.60
2019-02-16T10:19:05.945Z,14.30
2019-02-16T10:21:49.149Z,14.77
2019-02-16T10:24:38.407Z,14.27
2019-02-16T10:27:21.984Z,13.77
2019-02-16T10:30:09.553Z,13.60
2019-02-16T10:32:49.895Z,13.10
2019-02-16T10:35:39.228Z,14.83
2019-02-16T10:38:13.102Z,14.97
2019-02-16T10:40:44.508Z,14.67
2019-02-16T10:43:15.813Z,14.70
2019-02-16T10:45:47.161Z,14.93
2019-02-16T10:48:30.551Z,15.17
2019-02-16T10:51:04.469Z,15.17
2019-02-16T10:53:35.904Z,15.53
2019-02-16T10:56:07.271Z,15.17
2019-02-16T10:58:41.391Z,14.20
2019-02-16T11:01:12.733Z,14.57
2019-02-16T11:03:50.110Z,13.70
2019-02-16T11:06:27.727Z,13.50
2019-02-16T11:08:59.099Z,12.17
2019-02-16T11:11:42.566Z,12.40
2019-02-16T11:14:19.737Z,13.53
2019-02-16T11:16:51.136Z,13.27
2019-02-16T11:19:31.763Z,12.13
2019-02-16T11:22:04.519Z,12.03
2019-02-16T11:24:48.374Z,11.80
2019-02-16T11:27:31.890Z,10.83
2019-02-16T11:30:09.353Z,11.03
2019-02-16T11:32:50.848Z,12.03
2019-02-16T11:35:22.244Z,12.60
2019-02-16T11:37:53.568Z,11.80
2019-02-16T11:40:24.981Z,12.03
2019-02-16T11:42:56.382Z,11.43
2019-02-16T11:45:44.059Z,10.67
2019-02-16T11:48:31.698Z,11.77
2019-02-16T11:51:03.037Z,11.40
2019-02-16T11:53:34.455Z,11.83
2019-02-16T11:56:14.625Z,12.33
2019-02-16T11:59:02.949Z,12.43
2019-02-16T12:01:37.328Z,11.67
2019-02-16T12:04:08.777Z,12.77
2019-02-16T12:06:56.052Z,12.47
2019-02-16T12:09:42.466Z,11.70
2019-02-16T12:12:13.857Z,11.73
2019-02-16T12:14:51.209Z,12.43
2019-02-16T12:17:23.569Z,11.57
2019-02-16T12:19:54.987Z,11.40
2019-02-16T12:22:35.444Z,12.03
2019-02-16T12:25:10.495Z,11.70
2019-02-16T12:27:59.657Z,11.77
2019-02-16T12:30:40.131Z,11.37
2019-02-16T12:33:26.819Z,10.90
2019-02-16T12:36:07.047Z,11.63
2019-02-16T12:39:04.564Z,10.83
2019-02-16T12:41:29.495Z,11.70
2019-02-16T12:44:00.916Z,11.83
2019-02-16T12:46:33.360Z,11.37
2019-02-16T12:49:21.255Z,12.27
2019-02-16T12:51:52.592Z,11.97
2019-02-16T12:54:30.162Z,12.63
2019-02-16T12:57:01.492Z,11.87
2019-02-16T12:59:49.014Z,11.80
2019-02-16T13:02:20.385Z,12.33
2019-02-16T13:04:52.307Z,13.57
2019-02-16T13:07:38.778Z,12.43
2019-02-16T13:10:16.077Z,13.80
2019-02-16T13:12:53.051Z,13.23
2019-02-16T13:15:28.551Z,13.43
2019-02-16T13:18:02.588Z,14.40
2019-02-16T13:20:33.970Z,12.80
2019-02-16T13:23:11.512Z,13.67
2019-02-16T13:25:42.845Z,12.20
2019-02-16T13:28:20.478Z,13.03
2019-02-16T13:30:51.784Z,12.97
2019-02-16T13:33:25.834Z,13.33
2019-02-16T13:36:00.112Z,12.50
2019-02-16T13:38:40.499Z,13.03
2019-02-16T13:41:26.874Z,13.63
2019-02-16T13:44:01.003Z,15.33
2019-02-16T13:46:47.551Z,14.97
2019-02-16T13:49:19.078Z,15.30
2019-02-16T13:51:50.663Z,14.90
2019-02-16T13:54:24.815Z,15.23
2019-02-16T13:57:11.347Z,14.83
2019-02-16T13:59:46.515Z,14.80
2019-02-16T14:02:25.362Z,14.60
2019-02-16T14:04:56.750Z,14.63
2019-02-16T14:07:40.370Z,14.67
2019-02-16T14:10:17.936Z,14.53
2019-02-16T14:12:52.221Z,15.93
2019-02-16T14:15:32.859Z,14.90
2019-02-16T14:18:02.614Z,15.57
2019-02-16T14:20:32.286Z,15.77
2019-02-16T14:23:02.098Z,14.77
2019-02-16T14:25:42.676Z,15.03
2019-02-16T14:28:07.956Z,15.60
2019-02-16T14:30:37.726Z,15.77
2019-02-16T14:33:07.489Z,15.87
2019-02-16T14:35:37.159Z,15.27
2019-02-16T14:38:20.406Z,16.13
2019-02-16T14:40:50.232Z,16.10
2019-02-16T14:43:20.015Z,15.63
2019-02-16T14:45:50.423Z,15.53
2019-02-16T14:48:20.206Z,16.33
2019-02-16T14:50:49.959Z,15.93
2019-02-16T14:53:19.735Z,16.33
2019-02-16T14:55:53.823Z,15.97
2019-02-16T14:58:20.821Z,16.53
2019-02-16T15:00:50.519Z,16.13
2019-02-16T15:03:20.226Z,17.07
2019-02-16T15:05:49.918Z,16.57
2019-02-16T15:08:19.668Z,16.03
2019-02-16T15:10:49.364Z,16.93
2019-02-16T15:13:19.145Z,16.47
2019-02-16T15:15:48.901Z,16.33
2019-02-16T15:18:18.682Z,16.70
2019-02-16T15:20:48.426Z,15.83
2019-02-16T15:23:18.371Z,16.13
2019-02-16T15:25:48.119Z,16.47
2019-02-16T15:28:17.806Z,17.57
2019-02-16T15:30:47.652Z,16.27
2019-02-16T15:33:17.500Z,16.67
2019-02-16T15:35:47.358Z,15.67
2019-02-16T15:38:17.106Z,15.60
2019-02-16T15:40:46.820Z,16.30
2019-02-16T15:43:16.519Z,15.87
2019-02-16T15:45:46.287Z,16.80
2019-02-16T15:48:16.061Z,15.63
2019-02-16T15:50:45.823Z,16.83
2019-02-16T15:53:15.506Z,17.00
2019-02-16T15:55:45.277Z,17.33
2019-02-16T15:58:15.050Z,16.27
2019-02-16T16:00:44.802Z,16.10
2019-02-16T16:03:14.559Z,15.63
2019-02-16T16:05:44.311Z,17.10
2019-02-16T16:08:15.641Z,16.17
2019-02-16T16:10:50.161Z,16.30
2019-02-16T16:13:21.483Z,16.63
2019-02-16T16:15:58.542Z,17.27
2019-02-16T16:18:38.840Z,21.60
2019-02-16T16:21:16.354Z,19.20
2019-02-16T16:23:53.957Z,17.90
2019-02-16T16:26:29.426Z,18.53
2019-02-16T16:29:17.573Z,19.00
2019-02-16T16:31:54.826Z,19.17
2019-02-16T16:34:32.454Z,19.97
2019-02-16T16:37:09.838Z,19.67
2019-02-16T16:39:47.438Z,19.27
2019-02-16T16:42:35.192Z,22.73
2019-02-16T16:45:08.218Z,23.10
2019-02-16T16:47:48.625Z,20.57
2019-02-16T16:50:25.967Z,21.53
2019-02-16T16:53:13.846Z,21.03
2019-02-16T16:55:47.694Z,21.57
2019-02-16T16:58:24.979Z,21.80
2019-02-16T17:01:05.296Z,20.37
2019-02-16T17:03:39.809Z,22.40
2019-02-16T17:06:11.217Z,23.07
2019-02-16T17:08:45.338Z,23.77
2019-02-16T17:11:25.401Z,23.73
2019-02-16T17:14:02.473Z,24.03
2019-02-16T17:16:33.800Z,22.80
2019-02-16T17:19:07.832Z,23.30
2019-02-16T17:21:48.229Z,23.23
2019-02-16T17:24:19.548Z,22.40
2019-02-16T17:27:07.369Z,23.47
2019-02-16T17:29:41.408Z,21.67
2019-02-16T17:32:15.662Z,22.53
2019-02-16T17:34:59.301Z,20.70
2019-02-16T17:37:33.445Z,19.20
2019-02-16T17:40:05.031Z,19.60
2019-02-16T17:42:42.338Z,20.77
2019-02-16T17:45:13.680Z,20.00
2019-02-16T17:48:01.321Z,18.37
2019-02-16T17:50:47.806Z,17.87
2019-02-16T17:53:19.117Z,18.10
2019-02-16T17:55:59.547Z,18.03
2019-02-16T17:58:30.856Z,19.03
2019-02-16T18:01:11.157Z,20.67
2019-02-16T18:03:45.566Z,21.50
2019-02-16T18:06:22.601Z,20.87
2019-02-16T18:08:54.064Z,19.30
2019-02-16T18:11:28.332Z,19.13
2019-02-16T18:14:02.632Z,19.77
2019-02-16T18:16:50.228Z,19.77
2019-02-16T18:19:24.540Z,19.33
2019-02-16T18:21:58.857Z,19.40
2019-02-16T18:24:46.822Z,20.90
2019-02-16T18:27:36.641Z,23.67
2019-02-16T18:30:25.159Z,32.93
2019-02-16T18:33:08.727Z,25.73
2019-02-16T18:35:47.993Z,22.00
2019-02-16T18:38:19.478Z,23.00
2019-02-16T18:41:05.877Z,23.20
2019-02-16T18:43:52.649Z,21.30
2019-02-16T18:46:33.063Z,21.53
2019-02-16T18:49:04.381Z,21.30
2019-02-16T18:51:41.267Z,21.93
2019-02-16T18:54:12.581Z,22.50
2019-02-16T18:57:06.690Z,22.83
2019-02-16T18:59:37.253Z,23.53
2019-02-16T19:02:23.566Z,22.57
2019-02-16T19:04:57.917Z,23.03
2019-02-16T19:07:32.257Z,23.37
2019-02-16T19:10:09.253Z,24.27
2019-02-16T19:12:52.884Z,24.83
2019-02-16T19:15:33.204Z,24.60
2019-02-16T19:18:07.588Z,24.87
2019-02-16T19:20:44.722Z,27.57
2019-02-16T19:23:18.762Z,26.37
2019-02-16T19:25:53.226Z,26.03
2019-02-16T19:28:27.344Z,27.13
2019-02-16T19:30:58.653Z,27.53
2019-02-16T19:33:29.987Z,28.73
2019-02-16T19:36:10.419Z,29.07
2019-02-16T19:38:58.290Z,26.80
2019-02-16T19:41:29.613Z,26.30
2019-02-16T19:44:01.038Z,26.93
2019-02-16T19:46:44.359Z,24.93
2019-02-16T19:49:21.648Z,24.07
2019-02-16T19:51:59.057Z,24.47
2019-02-16T19:54:45.579Z,25.23
2019-02-16T19:57:27.002Z,25.60
2019-02-16T20:00:12.586Z,24.97
2019-02-16T20:03:00.266Z,24.23
2019-02-16T20:05:43.925Z,26.77
2019-02-16T20:08:18.200Z,25.20
2019-02-16T20:10:49.576Z,25.70
2019-02-16T20:13:23.642Z,26.50
2019-02-16T20:16:03.912Z,26.70
2019-02-16T20:18:37.254Z,27.07
2019-02-16T20:21:11.497Z,26.60
2019-02-16T20:23:43.770Z,25.53
2019-02-16T20:26:15.822Z,25.57
2019-02-16T20:28:47.575Z,26.77
2019-02-16T20:31:19.309Z,26.77
2019-02-16T20:33:59.799Z,27.27
2019-02-16T20:36:34.626Z,29.03
2019-02-16T20:39:13.142Z,26.33
2019-02-16T20:41:56.966Z,27.13
2019-02-16T20:44:31.706Z,26.67
2019-02-16T20:47:19.748Z,26.27
2019-02-16T20:49:54.411Z,26.07
2019-02-16T20:52:26.722Z,25.67
2019-02-16T20:55:10.569Z,25.07
2019-02-16T20:57:47.868Z,24.57
2019-02-16T21:00:21.986Z,24.50
2019-02-16T21:03:04.246Z,25.57
2019-02-16T21:05:45.266Z,25.37
2019-02-16T21:08:16.799Z,27.00
2019-02-16T21:11:06.109Z,25.80
2019-02-16T21:13:37.987Z,26.40
2019-02-16T21:16:28.062Z,25.63
2019-02-16T21:19:15.939Z,25.20
2019-02-16T21:21:57.356Z,24.27
2019-02-16T21:24:32.878Z,24.90
2019-02-16T21:27:04.762Z,23.40
2019-02-16T21:29:37.726Z,24.13
2019-02-16T21:32:19.762Z,23.77
2019-02-16T21:34:51.565Z,23.33
2019-02-16T21:37:25.669Z,23.83
2019-02-16T21:40:09.468Z,24.33
2019-02-16T21:42:50.047Z,24.43
2019-02-16T21:45:27.334Z,23.53
2019-02-16T21:48:01.525Z,23.97
2019-02-16T21:50:49.879Z,24.33
2019-02-16T21:53:34.532Z,23.53
2019-02-16T21:56:07.831Z,24.17
2019-02-16T21:58:46.032Z,24.30
2019-02-16T22:01:32.445Z,25.30
2019-02-16T22:04:09.520Z,21.73
2019-02-16T22:06:52.951Z,24.30
2019-02-16T22:09:40.636Z,24.07
2019-02-16T22:12:27.490Z,24.67
2019-02-16T22:14:57.257Z,24.40
2019-02-16T22:17:26.924Z,24.10
2019-02-16T22:19:56.612Z,26.37
2019-02-16T22:22:26.303Z,27.27
2019-02-16T22:24:55.973Z,26.93
2019-02-16T22:27:25.739Z,24.25
2019-02-16T22:29:55.406Z,23.87
2019-02-16T22:32:25.092Z,23.87
2019-02-16T22:34:54.792Z,25.33
2019-02-16T22:37:24.457Z,23.30
2019-02-16T22:39:54.304Z,23.10
2019-02-16T22:42:24.105Z,23.32
2019-02-16T22:44:53.792Z,22.90
2019-02-16T22:47:23.548Z,23.90
2019-02-16T22:49:53.231Z,22.50
2019-02-16T22:52:22.899Z,23.70
2019-02-16T22:54:52.600Z,24.85
2019-02-16T22:57:22.284Z,24.77
2019-02-16T22:59:52.052Z,24.80
2019-02-16T23:02:21.820Z,24.90
2019-02-16T23:04:51.595Z,23.70
2019-02-16T23:07:21.283Z,23.95
2019-02-16T23:09:51.052Z,25.05
2019-02-16T23:12:20.724Z,24.90
2019-02-16T23:14:50.412Z,24.02
2019-02-16T23:17:20.177Z,23.83
2019-02-16T23:19:50.073Z,24.50
2019-02-16T23:22:19.874Z,23.00
2019-02-16T23:24:49.556Z,23.87
2019-02-16T23:27:19.315Z,25.85
2019-02-16T23:29:49.069Z,25.50
2019-02-16T23:32:18.831Z,25.40
2019-02-16T23:34:48.502Z,25.65
2019-02-16T23:37:18.267Z,26.15
2019-02-16T23:39:47.959Z,24.67
2019-02-16T23:42:18.550Z,25.23
2019-02-16T23:44:48.303Z,25.92
2019-02-16T23:47:18.063Z,25.35
2019-02-16T23:49:47.739Z,26.30
2019-02-16T23:52:17.458Z,26.02
2019-02-16T23:54:47.195Z,23.73
2019-02-16T23:57:16.893Z,24.75
2019-02-16T23:59:46.568Z,24.10
